sensor_id;sensor_type;location;lat;lon;timestamp;P1;durP1;ratioP1;P2;durP2;ratioP2
37097;SDS011;63608;49.572;12.348;2022-11-14T00:01:57;56.10;;;33.73;;
37097;SDS011;63608;49.572;12.348;2022-11-14T00:03:59;52.80;;;33.00;;
37097;SDS011;63608;49.572;12.348;2022-11-14T00:06:05;57.60;;;34.50;;
37097;SDS011;63608;49.572;12.348;2022-11-14T00:08:13;56.03;;;34.30;;
37097;SDS011;63608;49.572;12.348;2022-11-14T00:10:18;59.30;;;36.40;;
37097;SDS011;63608;49.572;12.348;2022-11-14T00:12:21;56.83;;;34.67;;
37097;SDS011;63608;49.572;12.348;2022-11-14T00:14:23;54.43;;;32.07;;
37097;SDS011;63608;49.572;12.348;2022-11-14T00:16:29;57.20;;;34.23;;
37097;SDS011;63608;49.572;12.348;2022-11-14T00:18:38;57.80;;;34.20;;
37097;SDS011;63608;49.572;12.348;2022-11-14T00:20:46;66.23;;;37.90;;
37097;SDS011;63608;49.572;12.348;2022-11-14T00:22:49;53.73;;;34.00;;
37097;SDS011;63608;49.572;12.348;2022-11-14T00:24:52;56.27;;;36.00;;
37097;SDS011;63608;49.572;12.348;2022-11-14T00:26:56;50.87;;;33.33;;
37097;SDS011;63608;49.572;12.348;2022-11-14T00:29:02;64.87;;;35.40;;
37097;SDS011;63608;49.572;12.348;2022-11-14T00:31:06;53.70;;;33.00;;
37097;SDS011;63608;49.572;12.348;2022-11-14T00:33:11;56.10;;;33.10;;
37097;SDS011;63608;49.572;12.348;2022-11-14T00:35:14;63.70;;;34.70;;
37097;SDS011;63608;49.572;12.348;2022-11-14T00:37:17;52.77;;;32.23;;
37097;SDS011;63608;49.572;12.348;2022-11-14T00:39:23;54.40;;;33.17;;
37097;SDS011;63608;49.572;12.348;2022-11-14T00:41:29;54.63;;;34.20;;
37097;SDS011;63608;49.572;12.348;2022-11-14T00:43:32;60.03;;;35.20;;
37097;SDS011;63608;49.572;12.348;2022-11-14T00:45:35;49.70;;;31.77;;
37097;SDS011;63608;49.572;12.348;2022-11-14T00:47:38;53.00;;;32.93;;
37097;SDS011;63608;49.572;12.348;2022-11-14T00:49:46;53.67;;;32.97;;
37097;SDS011;63608;49.572;12.348;2022-11-14T00:51:48;52.67;;;31.90;;
37097;SDS011;63608;49.572;12.348;2022-11-14T00:53:51;51.87;;;32.10;;
37097;SDS011;63608;49.572;12.348;2022-11-14T00:55:55;50.90;;;31.80;;
37097;SDS011;63608;49.572;12.348;2022-11-14T00:57:57;52.63;;;32.60;;
37097;SDS011;63608;49.572;12.348;2022-11-14T01:00:01;54.83;;;32.83;;
37097;SDS011;63608;49.572;12.348;2022-11-14T01:02:04;53.53;;;32.17;;
37097;SDS011;63608;49.572;12.348;2022-11-14T01:04:10;58.27;;;34.50;;
37097;SDS011;63608;49.572;12.348;2022-11-14T01:06:14;49.13;;;31.30;;
37097;SDS011;63608;49.572;12.348;2022-11-14T01:08:17;51.20;;;31.67;;
37097;SDS011;63608;49.572;12.348;2022-11-14T01:10:21;49.13;;;31.40;;
37097;SDS011;63608;49.572;12.348;2022-11-14T01:12:27;50.20;;;31.30;;
37097;SDS011;63608;49.572;12.348;2022-11-14T01:14:29;50.90;;;31.50;;
37097;SDS011;63608;49.572;12.348;2022-11-14T01:16:32;50.43;;;30.80;;
37097;SDS011;63608;49.572;12.348;2022-11-14T01:18:35;47.00;;;29.97;;
37097;SDS011;63608;49.572;12.348;2022-11-14T01:20:38;54.53;;;31.70;;
37097;SDS011;63608;49.572;12.348;2022-11-14T01:22:43;49.20;;;31.80;;
37097;SDS011;63608;49.572;12.348;2022-11-14T01:24:45;52.77;;;32.63;;
37097;SDS011;63608;49.572;12.348;2022-11-14T01:26:48;47.07;;;31.03;;
37097;SDS011;63608;49.572;12.348;2022-11-14T01:28:54;48.90;;;31.17;;
37097;SDS011;63608;49.572;12.348;2022-11-14T01:31:06;52.83;;;31.73;;
37097;SDS011;63608;49.572;12.348;2022-11-14T01:33:09;47.33;;;30.20;;
37097;SDS011;63608;49.572;12.348;2022-11-14T01:35:12;57.30;;;33.20;;
37097;SDS011;63608;49.572;12.348;2022-11-14T01:37:14;51.93;;;31.27;;
37097;SDS011;63608;49.572;12.348;2022-11-14T01:39:20;46.20;;;28.73;;
37097;SDS011;63608;49.572;12.348;2022-11-14T01:41:22;48.07;;;28.80;;
37097;SDS011;63608;49.572;12.348;2022-11-14T01:43:28;43.20;;;29.20;;
37097;SDS011;63608;49.572;12.348;2022-11-14T01:48:00;44.93;;;27.60;;
37097;SDS011;63608;49.572;12.348;2022-11-14T01:50:03;41.57;;;28.77;;
37097;SDS011;63608;49.572;12.348;2022-11-14T01:52:07;44.07;;;29.47;;
37097;SDS011;63608;49.572;12.348;2022-11-14T01:54:15;50.77;;;31.40;;
37097;SDS011;63608;49.572;12.348;2022-11-14T01:56:23;47.00;;;30.80;;
37097;SDS011;63608;49.572;12.348;2022-11-14T01:58:27;44.40;;;28.50;;
37097;SDS011;63608;49.572;12.348;2022-11-14T02:00:41;51.67;;;31.43;;
37097;SDS011;63608;49.572;12.348;2022-11-14T02:02:44;45.03;;;28.83;;
37097;SDS011;63608;49.572;12.348;2022-11-14T02:04:47;41.77;;;28.23;;
37097;SDS011;63608;49.572;12.348;2022-11-14T02:06:53;46.40;;;28.93;;
37097;SDS011;63608;49.572;12.348;2022-11-14T02:08:57;43.63;;;27.93;;
37097;SDS011;63608;49.572;12.348;2022-11-14T02:11:03;44.93;;;29.30;;
37097;SDS011;63608;49.572;12.348;2022-11-14T02:13:08;42.37;;;29.33;;
37097;SDS011;63608;49.572;12.348;2022-11-14T02:15:10;46.20;;;28.97;;
37097;SDS011;63608;49.572;12.348;2022-11-14T02:17:12;48.50;;;29.67;;
37097;SDS011;63608;49.572;12.348;2022-11-14T02:19:16;45.33;;;29.07;;
37097;SDS011;63608;49.572;12.348;2022-11-14T02:21:19;51.10;;;32.10;;
37097;SDS011;63608;49.572;12.348;2022-11-14T02:23:25;42.67;;;27.37;;
37097;SDS011;63608;49.572;12.348;2022-11-14T02:25:34;42.03;;;28.40;;
37097;SDS011;63608;49.572;12.348;2022-11-14T02:27:40;47.47;;;31.00;;
37097;SDS011;63608;49.572;12.348;2022-11-14T02:29:45;45.13;;;28.20;;
37097;SDS011;63608;49.572;12.348;2022-11-14T02:31:48;44.97;;;28.67;;
37097;SDS011;63608;49.572;12.348;2022-11-14T02:33:51;41.57;;;27.10;;
37097;SDS011;63608;49.572;12.348;2022-11-14T02:35:54;43.47;;;28.27;;
37097;SDS011;63608;49.572;12.348;2022-11-14T02:37:58;41.27;;;27.23;;
37097;SDS011;63608;49.572;12.348;2022-11-14T02:40:01;42.43;;;28.30;;
37097;SDS011;63608;49.572;12.348;2022-11-14T02:42:04;44.90;;;28.70;;
37097;SDS011;63608;49.572;12.348;2022-11-14T02:44:08;45.97;;;28.70;;
37097;SDS011;63608;49.572;12.348;2022-11-14T02:46:13;48.43;;;29.17;;
37097;SDS011;63608;49.572;12.348;2022-11-14T02:48:18;40.97;;;27.40;;
37097;SDS011;63608;49.572;12.348;2022-11-14T02:50:21;47.60;;;29.10;;
37097;SDS011;63608;49.572;12.348;2022-11-14T02:52:26;40.87;;;26.90;;
37097;SDS011;63608;49.572;12.348;2022-11-14T02:54:32;44.90;;;28.43;;
37097;SDS011;63608;49.572;12.348;2022-11-14T02:56:37;43.40;;;28.00;;
37097;SDS011;63608;49.572;12.348;2022-11-14T02:58:41;42.70;;;27.63;;
37097;SDS011;63608;49.572;12.348;2022-11-14T03:00:45;41.70;;;28.00;;
37097;SDS011;63608;49.572;12.348;2022-11-14T03:02:48;44.17;;;27.50;;
37097;SDS011;63608;49.572;12.348;2022-11-14T03:04:51;44.13;;;27.80;;
37097;SDS011;63608;49.572;12.348;2022-11-14T03:06:56;42.97;;;27.70;;
37097;SDS011;63608;49.572;12.348;2022-11-14T03:09:03;43.83;;;28.90;;
37097;SDS011;63608;49.572;12.348;2022-11-14T03:11:08;47.17;;;29.13;;
37097;SDS011;63608;49.572;12.348;2022-11-14T03:13:12;37.10;;;25.77;;
37097;SDS011;63608;49.572;12.348;2022-11-14T03:15:24;44.20;;;27.67;;
37097;SDS011;63608;49.572;12.348;2022-11-14T03:17:27;43.13;;;28.10;;
37097;SDS011;63608;49.572;12.348;2022-11-14T03:19:32;42.70;;;26.40;;
37097;SDS011;63608;49.572;12.348;2022-11-14T03:21:34;41.57;;;28.17;;
37097;SDS011;63608;49.572;12.348;2022-11-14T03:23:36;40.67;;;26.70;;
37097;SDS011;63608;49.572;12.348;2022-11-14T03:25:39;40.97;;;26.33;;
37097;SDS011;63608;49.572;12.348;2022-11-14T03:27:46;39.17;;;26.30;;
37097;SDS011;63608;49.572;12.348;2022-11-14T03:29:48;40.73;;;26.70;;
37097;SDS011;63608;49.572;12.348;2022-11-14T03:31:53;44.10;;;28.10;;
37097;SDS011;63608;49.572;12.348;2022-11-14T03:33:58;45.00;;;28.20;;
37097;SDS011;63608;49.572;12.348;2022-11-14T03:36:02;44.43;;;27.50;;
37097;SDS011;63608;49.572;12.348;2022-11-14T03:38:05;42.40;;;27.53;;
37097;SDS011;63608;49.572;12.348;2022-11-14T03:40:09;39.43;;;25.73;;
37097;SDS011;63608;49.572;12.348;2022-11-14T03:42:15;40.80;;;26.50;;
37097;SDS011;63608;49.572;12.348;2022-11-14T03:44:21;42.70;;;27.63;;
37097;SDS011;63608;49.572;12.348;2022-11-14T03:46:23;43.90;;;27.43;;
37097;SDS011;63608;49.572;12.348;2022-11-14T03:48:25;43.53;;;27.57;;
37097;SDS011;63608;49.572;12.348;2022-11-14T03:50:34;39.77;;;25.97;;
37097;SDS011;63608;49.572;12.348;2022-11-14T03:52:37;48.63;;;28.80;;
37097;SDS011;63608;49.572;12.348;2022-11-14T03:54:39;40.70;;;27.40;;
37097;SDS011;63608;49.572;12.348;2022-11-14T03:56:42;40.33;;;26.07;;
37097;SDS011;63608;49.572;12.348;2022-11-14T03:58:46;42.83;;;26.53;;
37097;SDS011;63608;49.572;12.348;2022-11-14T04:00:50;41.50;;;26.07;;
37097;SDS011;63608;49.572;12.348;2022-11-14T04:02:55;41.03;;;26.50;;
37097;SDS011;63608;49.572;12.348;2022-11-14T04:04:58;44.77;;;27.40;;
37097;SDS011;63608;49.572;12.348;2022-11-14T04:07:00;43.47;;;27.27;;
37097;SDS011;63608;49.572;12.348;2022-11-14T04:09:04;43.67;;;25.60;;
37097;SDS011;63608;49.572;12.348;2022-11-14T04:11:08;40.70;;;26.47;;
37097;SDS011;63608;49.572;12.348;2022-11-14T04:13:11;40.73;;;26.90;;
37097;SDS011;63608;49.572;12.348;2022-11-14T04:15:18;44.93;;;27.50;;
37097;SDS011;63608;49.572;12.348;2022-11-14T04:17:22;45.97;;;28.27;;
37097;SDS011;63608;49.572;12.348;2022-11-14T04:19:25;44.07;;;28.30;;
37097;SDS011;63608;49.572;12.348;2022-11-14T04:21:33;43.77;;;27.47;;
37097;SDS011;63608;49.572;12.348;2022-11-14T04:23:36;43.47;;;26.67;;
37097;SDS011;63608;49.572;12.348;2022-11-14T04:25:38;45.90;;;28.40;;
37097;SDS011;63608;49.572;12.348;2022-11-14T04:27:41;46.23;;;27.73;;
37097;SDS011;63608;49.572;12.348;2022-11-14T04:29:46;50.60;;;29.73;;
37097;SDS011;63608;49.572;12.348;2022-11-14T04:31:48;41.90;;;26.93;;
37097;SDS011;63608;49.572;12.348;2022-11-14T04:33:59;40.70;;;26.07;;
37097;SDS011;63608;49.572;12.348;2022-11-14T04:36:01;39.97;;;25.33;;
37097;SDS011;63608;49.572;12.348;2022-11-14T04:38:05;46.40;;;28.17;;
37097;SDS011;63608;49.572;12.348;2022-11-14T04:40:08;41.13;;;25.47;;
37097;SDS011;63608;49.572;12.348;2022-11-14T04:42:12;43.70;;;28.80;;
37097;SDS011;63608;49.572;12.348;2022-11-14T04:44:16;38.27;;;25.57;;
37097;SDS011;63608;49.572;12.348;2022-11-14T04:46:19;41.27;;;26.27;;
37097;SDS011;63608;49.572;12.348;2022-11-14T04:48:21;46.27;;;27.30;;
37097;SDS011;63608;49.572;12.348;2022-11-14T04:50:25;38.63;;;25.93;;
37097;SDS011;63608;49.572;12.348;2022-11-14T04:52:28;41.73;;;26.07;;
37097;SDS011;63608;49.572;12.348;2022-11-14T04:54:36;39.13;;;25.63;;
37097;SDS011;63608;49.572;12.348;2022-11-14T04:56:40;44.10;;;28.53;;
37097;SDS011;63608;49.572;12.348;2022-11-14T04:58:45;43.27;;;26.33;;
37097;SDS011;63608;49.572;12.348;2022-11-14T05:00:48;40.50;;;26.10;;
37097;SDS011;63608;49.572;12.348;2022-11-14T05:02:52;38.10;;;25.10;;
37097;SDS011;63608;49.572;12.348;2022-11-14T05:04:57;38.90;;;25.80;;
37097;SDS011;63608;49.572;12.348;2022-11-14T05:07:01;40.53;;;26.37;;
37097;SDS011;63608;49.572;12.348;2022-11-14T05:09:04;41.20;;;27.10;;
37097;SDS011;63608;49.572;12.348;2022-11-14T05:11:12;42.53;;;27.37;;
37097;SDS011;63608;49.572;12.348;2022-11-14T05:13:16;42.50;;;26.57;;
37097;SDS011;63608;49.572;12.348;2022-11-14T05:15:21;41.90;;;26.10;;
37097;SDS011;63608;49.572;12.348;2022-11-14T05:17:30;39.13;;;25.33;;
37097;SDS011;63608;49.572;12.348;2022-11-14T05:19:39;40.23;;;26.33;;
37097;SDS011;63608;49.572;12.348;2022-11-14T05:21:42;37.87;;;24.70;;
37097;SDS011;63608;49.572;12.348;2022-11-14T05:23:46;40.00;;;25.27;;
37097;SDS011;63608;49.572;12.348;2022-11-14T05:25:57;38.17;;;25.20;;
37097;SDS011;63608;49.572;12.348;2022-11-14T05:28:00;34.73;;;23.77;;
37097;SDS011;63608;49.572;12.348;2022-11-14T05:30:04;40.30;;;25.37;;
37097;SDS011;63608;49.572;12.348;2022-11-14T05:32:07;45.63;;;26.90;;
37097;SDS011;63608;49.572;12.348;2022-11-14T05:34:12;39.87;;;25.50;;
37097;SDS011;63608;49.572;12.348;2022-11-14T05:36:14;38.07;;;25.27;;
37097;SDS011;63608;49.572;12.348;2022-11-14T05:38:17;37.27;;;25.10;;
37097;SDS011;63608;49.572;12.348;2022-11-14T05:40:22;37.87;;;25.03;;
37097;SDS011;63608;49.572;12.348;2022-11-14T05:42:27;37.07;;;25.60;;
37097;SDS011;63608;49.572;12.348;2022-11-14T05:44:30;39.60;;;26.30;;
37097;SDS011;63608;49.572;12.348;2022-11-14T05:46:34;34.63;;;23.80;;
37097;SDS011;63608;49.572;12.348;2022-11-14T05:48:37;34.60;;;24.23;;
37097;SDS011;63608;49.572;12.348;2022-11-14T05:50:40;41.23;;;26.70;;
37097;SDS011;63608;49.572;12.348;2022-11-14T05:52:44;37.13;;;23.60;;
37097;SDS011;63608;49.572;12.348;2022-11-14T05:54:46;37.87;;;25.03;;
37097;SDS011;63608;49.572;12.348;2022-11-14T05:56:50;42.77;;;28.87;;
37097;SDS011;63608;49.572;12.348;2022-11-14T05:58:53;37.93;;;25.33;;
37097;SDS011;63608;49.572;12.348;2022-11-14T06:01:00;38.77;;;24.87;;
37097;SDS011;63608;49.572;12.348;2022-11-14T06:03:03;40.00;;;26.27;;
37097;SDS011;63608;49.572;12.348;2022-11-14T06:05:06;39.00;;;23.83;;
37097;SDS011;63608;49.572;12.348;2022-11-14T06:07:10;38.73;;;25.73;;
37097;SDS011;63608;49.572;12.348;2022-11-14T06:09:13;39.50;;;25.33;;
37097;SDS011;63608;49.572;12.348;2022-11-14T06:11:20;37.53;;;24.57;;
37097;SDS011;63608;49.572;12.348;2022-11-14T06:13:24;40.07;;;25.50;;
37097;SDS011;63608;49.572;12.348;2022-11-14T06:15:27;36.63;;;25.17;;
37097;SDS011;63608;49.572;12.348;2022-11-14T06:17:30;38.87;;;25.10;;
37097;SDS011;63608;49.572;12.348;2022-11-14T06:19:34;39.53;;;25.73;;
37097;SDS011;63608;49.572;12.348;2022-11-14T06:21:37;39.40;;;25.47;;
37097;SDS011;63608;49.572;12.348;2022-11-14T06:23:39;39.37;;;24.63;;
37097;SDS011;63608;49.572;12.348;2022-11-14T06:25:42;37.53;;;25.10;;
37097;SDS011;63608;49.572;12.348;2022-11-14T06:27:44;44.50;;;27.50;;
37097;SDS011;63608;49.572;12.348;2022-11-14T06:29:50;38.93;;;24.50;;
37097;SDS011;63608;49.572;12.348;2022-11-14T06:31:53;36.23;;;24.10;;
37097;SDS011;63608;49.572;12.348;2022-11-14T06:33:58;38.33;;;24.33;;
37097;SDS011;63608;49.572;12.348;2022-11-14T06:36:03;40.70;;;25.40;;
37097;SDS011;63608;49.572;12.348;2022-11-14T06:38:06;39.53;;;26.00;;
37097;SDS011;63608;49.572;12.348;2022-11-14T06:40:09;39.57;;;24.90;;
37097;SDS011;63608;49.572;12.348;2022-11-14T06:42:12;37.33;;;25.20;;
37097;SDS011;63608;49.572;12.348;2022-11-14T06:44:16;35.37;;;24.57;;
37097;SDS011;63608;49.572;12.348;2022-11-14T06:46:26;41.40;;;25.70;;
37097;SDS011;63608;49.572;12.348;2022-11-14T06:48:28;36.60;;;24.57;;
37097;SDS011;63608;49.572;12.348;2022-11-14T06:50:33;38.50;;;24.47;;
37097;SDS011;63608;49.572;12.348;2022-11-14T06:52:37;43.93;;;26.87;;
37097;SDS011;63608;49.572;12.348;2022-11-14T06:54:40;36.20;;;24.33;;
37097;SDS011;63608;49.572;12.348;2022-11-14T06:56:44;34.70;;;24.73;;
37097;SDS011;63608;49.572;12.348;2022-11-14T06:58:46;36.47;;;24.57;;
37097;SDS011;63608;49.572;12.348;2022-11-14T07:00:50;34.37;;;23.97;;
37097;SDS011;63608;49.572;12.348;2022-11-14T07:02:54;39.40;;;24.67;;
37097;SDS011;63608;49.572;12.348;2022-11-14T07:04:56;36.43;;;25.43;;
37097;SDS011;63608;49.572;12.348;2022-11-14T07:07:01;41.90;;;26.03;;
37097;SDS011;63608;49.572;12.348;2022-11-14T07:09:03;40.20;;;25.90;;
37097;SDS011;63608;49.572;12.348;2022-11-14T07:11:07;43.13;;;27.67;;
37097;SDS011;63608;49.572;12.348;2022-11-14T07:13:11;40.03;;;26.47;;
37097;SDS011;63608;49.572;12.348;2022-11-14T07:15:18;44.33;;;26.30;;
37097;SDS011;63608;49.572;12.348;2022-11-14T07:17:22;37.17;;;24.57;;
37097;SDS011;63608;49.572;12.348;2022-11-14T07:19:27;34.97;;;23.00;;
37097;SDS011;63608;49.572;12.348;2022-11-14T07:21:29;38.20;;;25.60;;
37097;SDS011;63608;49.572;12.348;2022-11-14T07:23:34;41.37;;;26.20;;
37097;SDS011;63608;49.572;12.348;2022-11-14T07:25:38;35.73;;;24.43;;
37097;SDS011;63608;49.572;12.348;2022-11-14T07:27:42;39.63;;;26.30;;
37097;SDS011;63608;49.572;12.348;2022-11-14T07:29:44;37.60;;;25.37;;
37097;SDS011;63608;49.572;12.348;2022-11-14T07:31:47;37.73;;;24.13;;
37097;SDS011;63608;49.572;12.348;2022-11-14T07:33:49;40.67;;;26.23;;
37097;SDS011;63608;49.572;12.348;2022-11-14T07:35:53;38.57;;;25.50;;
37097;SDS011;63608;49.572;12.348;2022-11-14T07:38:02;42.60;;;27.10;;
37097;SDS011;63608;49.572;12.348;2022-11-14T07:40:05;37.77;;;25.20;;
37097;SDS011;63608;49.572;12.348;2022-11-14T07:42:08;41.73;;;27.90;;
37097;SDS011;63608;49.572;12.348;2022-11-14T07:44:10;36.50;;;24.10;;
37097;SDS011;63608;49.572;12.348;2022-11-14T07:46:14;36.17;;;23.67;;
37097;SDS011;63608;49.572;12.348;2022-11-14T07:48:18;36.97;;;25.87;;
37097;SDS011;63608;49.572;12.348;2022-11-14T07:50:22;37.67;;;25.27;;
37097;SDS011;63608;49.572;12.348;2022-11-14T07:52:29;36.13;;;24.20;;
37097;SDS011;63608;49.572;12.348;2022-11-14T07:54:33;36.83;;;24.50;;
37097;SDS011;63608;49.572;12.348;2022-11-14T07:56:37;34.93;;;24.33;;
37097;SDS011;63608;49.572;12.348;2022-11-14T07:58:40;35.47;;;23.53;;
37097;SDS011;63608;49.572;12.348;2022-11-14T08:00:42;34.23;;;24.33;;
37097;SDS011;63608;49.572;12.348;2022-11-14T08:02:45;39.47;;;25.53;;
37097;SDS011;63608;49.572;12.348;2022-11-14T08:04:48;38.00;;;25.20;;
37097;SDS011;63608;49.572;12.348;2022-11-14T08:06:51;38.57;;;26.70;;
37097;SDS011;63608;49.572;12.348;2022-11-14T08:08:57;38.90;;;25.20;;
37097;SDS011;63608;49.572;12.348;2022-11-14T08:11:03;33.90;;;23.97;;
37097;SDS011;63608;49.572;12.348;2022-11-14T08:13:06;35.93;;;25.07;;
37097;SDS011;63608;49.572;12.348;2022-11-14T08:15:11;34.60;;;24.67;;
37097;SDS011;63608;49.572;12.348;2022-11-14T08:17:15;33.70;;;24.70;;
37097;SDS011;63608;49.572;12.348;2022-11-14T08:19:19;34.70;;;24.20;;
37097;SDS011;63608;49.572;12.348;2022-11-14T08:21:22;37.33;;;24.47;;
37097;SDS011;63608;49.572;12.348;2022-11-14T08:23:25;34.40;;;24.43;;
37097;SDS011;63608;49.572;12.348;2022-11-14T08:25:29;33.50;;;24.60;;
37097;SDS011;63608;49.572;12.348;2022-11-14T08:27:33;34.33;;;24.37;;
37097;SDS011;63608;49.572;12.348;2022-11-14T08:29:37;31.90;;;23.80;;
37097;SDS011;63608;49.572;12.348;2022-11-14T08:31:39;34.73;;;23.30;;
37097;SDS011;63608;49.572;12.348;2022-11-14T08:33:42;33.37;;;24.20;;
37097;SDS011;63608;49.572;12.348;2022-11-14T08:35:46;34.50;;;24.50;;
37097;SDS011;63608;49.572;12.348;2022-11-14T08:37:49;32.63;;;23.40;;
37097;SDS011;63608;49.572;12.348;2022-11-14T08:39:53;33.27;;;23.43;;
37097;SDS011;63608;49.572;12.348;2022-11-14T08:42:02;33.10;;;22.90;;
37097;SDS011;63608;49.572;12.348;2022-11-14T08:44:06;30.27;;;22.33;;
37097;SDS011;63608;49.572;12.348;2022-11-14T08:46:09;30.67;;;22.77;;
37097;SDS011;63608;49.572;12.348;2022-11-14T08:48:12;31.33;;;22.73;;
37097;SDS011;63608;49.572;12.348;2022-11-14T08:50:14;33.17;;;23.10;;
37097;SDS011;63608;49.572;12.348;2022-11-14T08:52:17;32.10;;;22.60;;
37097;SDS011;63608;49.572;12.348;2022-11-14T08:54:23;31.27;;;23.17;;
37097;SDS011;63608;49.572;12.348;2022-11-14T08:56:25;36.37;;;24.80;;
37097;SDS011;63608;49.572;12.348;2022-11-14T08:58:31;33.90;;;23.73;;
37097;SDS011;63608;49.572;12.348;2022-11-14T09:00:33;34.97;;;25.00;;
37097;SDS011;63608;49.572;12.348;2022-11-14T09:02:36;38.20;;;25.50;;
37097;SDS011;63608;49.572;12.348;2022-11-14T09:04:54;36.13;;;24.10;;
37097;SDS011;63608;49.572;12.348;2022-11-14T09:06:56;40.07;;;25.40;;
37097;SDS011;63608;49.572;12.348;2022-11-14T09:09:00;30.90;;;21.63;;
37097;SDS011;63608;49.572;12.348;2022-11-14T09:11:03;35.77;;;23.70;;
37097;SDS011;63608;49.572;12.348;2022-11-14T09:13:06;36.47;;;24.13;;
37097;SDS011;63608;49.572;12.348;2022-11-14T09:15:11;37.50;;;25.30;;
37097;SDS011;63608;49.572;12.348;2022-11-14T09:17:16;34.67;;;23.80;;
37097;SDS011;63608;49.572;12.348;2022-11-14T09:19:18;33.70;;;24.17;;
37097;SDS011;63608;49.572;12.348;2022-11-14T09:21:20;35.13;;;24.40;;
37097;SDS011;63608;49.572;12.348;2022-11-14T09:23:23;34.43;;;24.20;;
37097;SDS011;63608;49.572;12.348;2022-11-14T09:25:27;37.47;;;24.17;;
37097;SDS011;63608;49.572;12.348;2022-11-14T09:27:32;31.10;;;21.93;;
37097;SDS011;63608;49.572;12.348;2022-11-14T09:29:35;28.73;;;21.47;;
37097;SDS011;63608;49.572;12.348;2022-11-14T09:31:45;30.67;;;22.30;;
37097;SDS011;63608;49.572;12.348;2022-11-14T09:33:47;33.37;;;21.77;;
37097;SDS011;63608;49.572;12.348;2022-11-14T09:35:54;33.20;;;23.40;;
37097;SDS011;63608;49.572;12.348;2022-11-14T09:38:00;31.10;;;22.33;;
37097;SDS011;63608;49.572;12.348;2022-11-14T09:40:04;30.93;;;22.20;;
37097;SDS011;63608;49.572;12.348;2022-11-14T09:42:13;32.90;;;23.77;;
37097;SDS011;63608;49.572;12.348;2022-11-14T09:44:29;31.77;;;22.23;;
37097;SDS011;63608;49.572;12.348;2022-11-14T09:46:41;29.30;;;21.93;;
37097;SDS011;63608;49.572;12.348;2022-11-14T09:48:47;31.13;;;22.30;;
37097;SDS011;63608;49.572;12.348;2022-11-14T09:50:52;30.10;;;22.20;;
37097;SDS011;63608;49.572;12.348;2022-11-14T09:53:06;30.90;;;21.30;;
37097;SDS011;63608;49.572;12.348;2022-11-14T09:55:15;31.03;;;22.33;;
37097;SDS011;63608;49.572;12.348;2022-11-14T09:57:19;31.60;;;21.70;;
37097;SDS011;63608;49.572;12.348;2022-11-14T09:59:22;32.87;;;22.57;;
37097;SDS011;63608;49.572;12.348;2022-11-14T10:01:29;30.50;;;22.37;;
37097;SDS011;63608;49.572;12.348;2022-11-14T10:03:37;30.80;;;21.57;;
37097;SDS011;63608;49.572;12.348;2022-11-14T10:05:54;29.40;;;20.80;;
37097;SDS011;63608;49.572;12.348;2022-11-14T10:08:22;29.53;;;20.20;;
37097;SDS011;63608;49.572;12.348;2022-11-14T10:10:37;28.97;;;20.53;;
37097;SDS011;63608;49.572;12.348;2022-11-14T10:12:56;29.47;;;21.50;;
37097;SDS011;63608;49.572;12.348;2022-11-14T10:15:08;30.03;;;21.83;;
37097;SDS011;63608;49.572;12.348;2022-11-14T10:17:18;30.53;;;21.37;;
37097;SDS011;63608;49.572;12.348;2022-11-14T10:19:30;29.60;;;21.30;;
37097;SDS011;63608;49.572;12.348;2022-11-14T10:21:43;27.43;;;21.23;;
37097;SDS011;63608;49.572;12.348;2022-11-14T10:23:53;26.83;;;19.93;;
37097;SDS011;63608;49.572;12.348;2022-11-14T10:26:04;30.20;;;21.80;;
37097;SDS011;63608;49.572;12.348;2022-11-14T10:28:15;36.03;;;25.43;;
37097;SDS011;63608;49.572;12.348;2022-11-14T10:30:33;30.10;;;21.60;;
37097;SDS011;63608;49.572;12.348;2022-11-14T10:32:44;29.50;;;19.67;;
37097;SDS011;63608;49.572;12.348;2022-11-14T10:35:10;27.10;;;20.27;;
37097;SDS011;63608;49.572;12.348;2022-11-14T10:37:17;27.43;;;20.17;;
37097;SDS011;63608;49.572;12.348;2022-11-14T10:39:22;29.77;;;20.53;;
37097;SDS011;63608;49.572;12.348;2022-11-14T10:41:26;27.73;;;20.40;;
37097;SDS011;63608;49.572;12.348;2022-11-14T10:43:31;29.03;;;20.30;;
37097;SDS011;63608;49.572;12.348;2022-11-14T10:45:38;30.40;;;21.40;;
37097;SDS011;63608;49.572;12.348;2022-11-14T10:47:45;27.30;;;19.90;;
37097;SDS011;63608;49.572;12.348;2022-11-14T10:49:50;29.90;;;21.80;;
37097;SDS011;63608;49.572;12.348;2022-11-14T10:51:56;28.80;;;21.13;;
37097;SDS011;63608;49.572;12.348;2022-11-14T10:54:04;27.50;;;20.83;;
37097;SDS011;63608;49.572;12.348;2022-11-14T10:56:09;30.10;;;21.23;;
37097;SDS011;63608;49.572;12.348;2022-11-14T10:58:13;29.40;;;21.70;;
37097;SDS011;63608;49.572;12.348;2022-11-14T11:00:16;29.77;;;21.50;;
37097;SDS011;63608;49.572;12.348;2022-11-14T11:02:22;27.93;;;21.37;;
37097;SDS011;63608;49.572;12.348;2022-11-14T11:04:25;27.50;;;20.30;;
37097;SDS011;63608;49.572;12.348;2022-11-14T11:06:28;27.53;;;20.33;;
37097;SDS011;63608;49.572;12.348;2022-11-14T11:08:36;26.97;;;19.93;;
37097;SDS011;63608;49.572;12.348;2022-11-14T11:11:08;27.60;;;19.60;;
37097;SDS011;63608;49.572;12.348;2022-11-14T11:13:30;25.40;;;19.90;;
37097;SDS011;63608;49.572;12.348;2022-11-14T11:15:38;26.13;;;19.70;;
37097;SDS011;63608;49.572;12.348;2022-11-14T11:17:48;25.63;;;19.00;;
37097;SDS011;63608;49.572;12.348;2022-11-14T11:19:56;25.60;;;19.00;;
37097;SDS011;63608;49.572;12.348;2022-11-14T11:22:29;27.30;;;19.40;;
37097;SDS011;63608;49.572;12.348;2022-11-14T11:24:39;30.10;;;20.30;;
37097;SDS011;63608;49.572;12.348;2022-11-14T11:26:46;27.13;;;20.50;;
37097;SDS011;63608;49.572;12.348;2022-11-14T11:29:02;24.67;;;19.77;;
37097;SDS011;63608;49.572;12.348;2022-11-14T11:31:10;25.33;;;19.73;;
37097;SDS011;63608;49.572;12.348;2022-11-14T11:33:16;27.70;;;20.20;;
37097;SDS011;63608;49.572;12.348;2022-11-14T11:35:28;29.13;;;22.20;;
37097;SDS011;63608;49.572;12.348;2022-11-14T11:37:32;27.60;;;20.20;;
37097;SDS011;63608;49.572;12.348;2022-11-14T11:39:39;25.33;;;20.53;;
37097;SDS011;63608;49.572;12.348;2022-11-14T11:41:49;25.23;;;19.07;;
37097;SDS011;63608;49.572;12.348;2022-11-14T11:43:59;26.53;;;20.53;;
37097;SDS011;63608;49.572;12.348;2022-11-14T11:46:05;24.30;;;19.20;;
37097;SDS011;63608;49.572;12.348;2022-11-14T11:48:13;23.27;;;19.10;;
37097;SDS011;63608;49.572;12.348;2022-11-14T11:50:18;24.83;;;18.77;;
37097;SDS011;63608;49.572;12.348;2022-11-14T11:52:25;26.10;;;19.73;;
37097;SDS011;63608;49.572;12.348;2022-11-14T11:54:35;24.23;;;17.63;;
37097;SDS011;63608;49.572;12.348;2022-11-14T11:56:47;21.87;;;18.03;;
37097;SDS011;63608;49.572;12.348;2022-11-14T11:59:13;23.30;;;17.70;;
37097;SDS011;63608;49.572;12.348;2022-11-14T12:01:21;23.67;;;18.43;;
37097;SDS011;63608;49.572;12.348;2022-11-14T12:03:24;23.60;;;19.20;;
37097;SDS011;63608;49.572;12.348;2022-11-14T12:05:30;23.50;;;18.30;;